sensor_id;sensor_type;location;lat;lon;timestamp;pressure;altitude;pressure_sealevel;temperature;humidity
65897;BME280;52677;50.898;10.854;2023-04-01T00:00:19;96687.75;;;8.08;100.00
65897;BME280;52677;50.898;10.854;2023-04-01T00:02:20;96677.56;;;8.05;100.00
65897;BME280;52677;50.898;10.854;2023-04-01T00:04:20;96679.94;;;8.03;100.00
65897;BME280;52677;50.898;10.854;2023-04-01T00:06:21;96681.50;;;8.04;100.00
65897;BME280;52677;50.898;10.854;2023-04-01T00:08:22;96683.84;;;8.05;100.00
65897;BME280;52677;50.898;10.854;2023-04-01T00:10:23;96682.28;;;8.04;100.00
65897;BME280;52677;50.898;10.854;2023-04-01T00:12:23;96672.81;;;8.05;100.00
65897;BME280;52677;50.898;10.854;2023-04-01T00:14:25;96673.56;;;8.09;100.00
65897;BME280;52677;50.898;10.854;2023-04-01T00:16:25;96672.38;;;8.10;100.00
65897;BME280;52677;50.898;10.854;2023-04-01T00:18:25;96670.81;;;8.09;100.00
65897;BME280;52677;50.898;10.854;2023-04-01T00:20:26;96672.78;;;8.09;100.00
65897;BME280;52677;50.898;10.854;2023-04-01T00:22:27;96668.84;;;8.10;100.00
65897;BME280;52677;50.898;10.854;2023-04-01T00:24:27;96671.22;;;8.08;100.00
65897;BME280;52677;50.898;10.854;2023-04-01T00:26:28;96680.63;;;8.14;100.00
65897;BME280;52677;50.898;10.854;2023-04-01T00:28:29;96676.63;;;8.18;100.00
65897;BME280;52677;50.898;10.854;2023-04-01T00:30:29;96669.97;;;8.16;100.00
65897;BME280;52677;50.898;10.854;2023-04-01T00:32:29;96661.34;;;8.14;100.00
65897;BME280;52677;50.898;10.854;2023-04-01T00:34:30;96667.22;;;8.20;100.00
65897;BME280;52677;50.898;10.854;2023-04-01T00:36:31;96656.94;;;8.24;100.00
65897;BME280;52677;50.898;10.854;2023-04-01T00:38:31;96665.19;;;8.24;100.00
65897;BME280;52677;50.898;10.854;2023-04-01T00:40:37;96669.16;;;8.19;100.00
65897;BME280;52677;50.898;10.854;2023-04-01T00:42:38;96661.69;;;8.20;100.00
65897;BME280;52677;50.898;10.854;2023-04-01T00:44:38;96662.50;;;8.16;100.00
65897;BME280;52677;50.898;10.854;2023-04-01T00:46:38;96660.16;;;8.15;100.00
65897;BME280;52677;50.898;10.854;2023-04-01T00:48:48;96661.72;;;8.16;100.00
65897;BME280;52677;50.898;10.854;2023-04-01T00:50:55;96662.13;;;8.14;100.00
65897;BME280;52677;50.898;10.854;2023-04-01T00:52:58;96663.31;;;8.13;100.00
65897;BME280;52677;50.898;10.854;2023-04-01T00:55:00;96668.47;;;8.08;100.00
65897;BME280;52677;50.898;10.854;2023-04-01T00:57:07;96664.88;;;8.14;100.00
65897;BME280;52677;50.898;10.854;2023-04-01T00:59:22;96671.16;;;8.15;100.00
65897;BME280;52677;50.898;10.854;2023-04-01T01:01:24;96668.06;;;8.09;100.00
65897;BME280;52677;50.898;10.854;2023-04-01T01:03:25;96674.75;;;8.08;100.00
65897;BME280;52677;50.898;10.854;2023-04-01T01:05:38;96665.72;;;8.08;100.00
65897;BME280;52677;50.898;10.854;2023-04-01T01:08:18;96664.47;;;8.16;100.00
65897;BME280;52677;50.898;10.854;2023-04-01T01:10:26;96654.28;;;8.09;100.00
65897;BME280;52677;50.898;10.854;2023-04-01T01:12:40;96662.59;;;8.06;100.00
65897;BME280;52677;50.898;10.854;2023-04-01T01:17:26;96674.75;;;8.08;100.00
65897;BME280;52677;50.898;10.854;2023-04-01T01:26:40;96665.72;;;8.08;100.00
65897;BME280;52677;50.898;10.854;2023-04-01T01:33:22;96654.69;;;8.08;100.00
65897;BME280;52677;50.898;10.854;2023-04-01T01:37:29;96662.59;;;8.06;100.00
65897;BME280;52677;50.898;10.854;2023-04-01T01:39:33;96662.59;;;8.02;100.00
65897;BME280;52677;50.898;10.854;2023-04-01T01:41:36;96662.59;;;8.06;100.00
65897;BME280;52677;50.898;10.854;2023-04-01T01:43:42;96653.97;;;8.00;100.00
65897;BME280;52677;50.898;10.854;2023-04-01T01:45:46;96669.72;;;8.00;100.00
65897;BME280;52677;50.898;10.854;2023-04-01T01:47:49;96665.81;;;7.97;100.00
65897;BME280;52677;50.898;10.854;2023-04-01T01:49:51;96664.97;;;8.04;100.00
65897;BME280;52677;50.898;10.854;2023-04-01T01:51:53;96659.47;;;8.00;100.00
65897;BME280;52677;50.898;10.854;2023-04-01T01:53:53;96671.69;;;7.99;100.00
65897;BME280;52677;50.898;10.854;2023-04-01T01:55:54;96661.44;;;8.00;100.00
65897;BME280;52677;50.898;10.854;2023-04-01T01:57:56;96668.91;;;8.03;100.00
65897;BME280;52677;50.898;10.854;2023-04-01T02:00:08;96672.50;;;7.96;100.00
65897;BME280;52677;50.898;10.854;2023-04-01T02:02:14;96665.81;;;7.94;100.00
65897;BME280;52677;50.898;10.854;2023-04-01T02:04:16;96671.31;;;7.94;100.00
65897;BME280;52677;50.898;10.854;2023-04-01T02:06:21;96670.91;;;7.99;100.00
65897;BME280;52677;50.898;10.854;2023-04-01T02:08:32;96668.16;;;7.99;100.00
65897;BME280;52677;50.898;10.854;2023-04-01T02:10:37;96667.00;;;7.96;100.00
65897;BME280;52677;50.898;10.854;2023-04-01T02:12:40;96669.34;;;7.94;100.00
65897;BME280;52677;50.898;10.854;2023-04-01T02:15:08;96668.97;;;7.92;100.00
65897;BME280;52677;50.898;10.854;2023-04-01T02:17:21;96658.00;;;7.88;100.00
65897;BME280;52677;50.898;10.854;2023-04-01T02:19:26;96666.22;;;7.92;100.00
65897;BME280;52677;50.898;10.854;2023-04-01T02:21:31;96665.03;;;7.93;100.00
65897;BME280;52677;50.898;10.854;2023-04-01T02:23:35;96652.03;;;7.94;100.00
65897;BME280;52677;50.898;10.854;2023-04-01T02:25:37;96661.53;;;7.89;100.00
65897;BME280;52677;50.898;10.854;2023-04-01T02:27:42;96654.84;;;7.90;100.00
65897;BME280;52677;50.898;10.854;2023-04-01T02:29:43;96654.06;;;7.86;100.00
65897;BME280;52677;50.898;10.854;2023-04-01T02:31:44;96665.47;;;7.84;100.00
65897;BME280;52677;50.898;10.854;2023-04-01T02:33:45;96667.13;;;7.78;100.00
65897;BME280;52677;50.898;10.854;2023-04-01T02:35:47;96663.19;;;7.79;100.00
65897;BME280;52677;50.898;10.854;2023-04-01T02:37:49;96668.66;;;7.83;100.00
65897;BME280;52677;50.898;10.854;2023-04-01T02:39:49;96669.06;;;7.81;100.00
65897;BME280;52677;50.898;10.854;2023-04-01T02:41:50;96663.53;;;7.81;100.00
65897;BME280;52677;50.898;10.854;2023-04-01T02:43:50;96660.41;;;7.79;100.00
65897;BME280;52677;50.898;10.854;2023-04-01T02:45:50;96673.00;;;7.80;100.00
65897;BME280;52677;50.898;10.854;2023-04-01T02:47:51;96667.84;;;7.82;100.00
65897;BME280;52677;50.898;10.854;2023-04-01T02:49:51;96674.19;;;7.79;100.00
65897;BME280;52677;50.898;10.854;2023-04-01T02:51:57;96674.19;;;7.79;100.00
65897;BME280;52677;50.898;10.854;2023-04-01T02:53:58;96676.94;;;7.79;100.00
65897;BME280;52677;50.898;10.854;2023-04-01T02:55:58;96672.63;;;7.78;100.00
65897;BME280;52677;50.898;10.854;2023-04-01T02:57:59;96672.22;;;7.76;100.00
65897;BME280;52677;50.898;10.854;2023-04-01T03:00:00;96678.91;;;7.75;100.00
65897;BME280;52677;50.898;10.854;2023-04-01T03:02:00;96680.47;;;7.76;100.00
65897;BME280;52677;50.898;10.854;2023-04-01T03:04:00;96682.84;;;7.74;100.00
65897;BME280;52677;50.898;10.854;2023-04-01T03:06:12;96679.31;;;7.74;100.00
65897;BME280;52677;50.898;10.854;2023-04-01T03:08:13;96670.28;;;7.73;100.00
65897;BME280;52677;50.898;10.854;2023-04-01T03:10:14;96676.16;;;7.79;100.00
65897;BME280;52677;50.898;10.854;2023-04-01T03:12:14;96676.94;;;7.79;100.00
65897;BME280;52677;50.898;10.854;2023-04-01T03:14:14;96670.22;;;7.84;100.00
65897;BME280;52677;50.898;10.854;2023-04-01T03:16:15;96681.25;;;7.77;100.00
65897;BME280;52677;50.898;10.854;2023-04-01T03:18:15;96669.50;;;7.73;100.00
65897;BME280;52677;50.898;10.854;2023-04-01T03:20:15;96677.81;;;7.66;100.00
65897;BME280;52677;50.898;10.854;2023-04-01T03:22:16;96674.25;;;7.65;100.00
65897;BME280;52677;50.898;10.854;2023-04-01T03:24:16;96681.72;;;7.68;100.00
65897;BME280;52677;50.898;10.854;2023-04-01T03:26:17;96676.25;;;7.61;100.00
65897;BME280;52677;50.898;10.854;2023-04-01T03:28:18;96677.06;;;7.58;100.00
65897;BME280;52677;50.898;10.854;2023-04-01T03:30:18;96680.22;;;7.56;100.00
65897;BME280;52677;50.898;10.854;2023-04-01T03:32:18;96668.47;;;7.49;100.00
65897;BME280;52677;50.898;10.854;2023-04-01T03:34:19;96674.78;;;7.46;100.00
65897;BME280;52677;50.898;10.854;2023-04-01T03:36:19;96677.91;;;7.48;100.00
65897;BME280;52677;50.898;10.854;2023-04-01T03:38:20;96674.75;;;7.49;100.00
65897;BME280;52677;50.898;10.854;2023-04-01T03:40:21;96675.94;;;7.48;100.00
65897;BME280;52677;50.898;10.854;2023-04-01T03:42:22;96679.06;;;7.50;100.00
65897;BME280;52677;50.898;10.854;2023-04-01T03:44:22;96684.19;;;7.48;100.00
65897;BME280;52677;50.898;10.854;2023-04-01T03:46:22;96688.91;;;7.48;100.00
65897;BME280;52677;50.898;10.854;2023-04-01T03:48:23;96677.53;;;7.46;100.00
65897;BME280;52677;50.898;10.854;2023-04-01T03:50:23;96681.06;;;7.43;100.00
65897;BME280;52677;50.898;10.854;2023-04-01T03:52:23;96691.28;;;7.42;100.00
65897;BME280;52677;50.898;10.854;2023-04-01T03:54:24;96682.63;;;7.44;100.00
65897;BME280;52677;50.898;10.854;2023-04-01T03:56:24;96697.53;;;7.50;100.00
65897;BME280;52677;50.898;10.854;2023-04-01T03:58:24;96699.50;;;7.49;100.00
65897;BME280;52677;50.898;10.854;2023-04-01T04:00:25;96698.34;;;7.47;100.00
65897;BME280;52677;50.898;10.854;2023-04-01T04:02:27;96695.59;;;7.47;100.00
65897;BME280;52677;50.898;10.854;2023-04-01T04:04:28;96685.78;;;7.42;100.00
65897;BME280;52677;50.898;10.854;2023-04-01T04:06:29;96693.63;;;7.47;100.00
65897;BME280;52677;50.898;10.854;2023-04-01T04:08:29;96697.16;;;7.48;100.00
65897;BME280;52677;50.898;10.854;2023-04-01T04:10:30;96688.13;;;7.47;100.00
65897;BME280;52677;50.898;10.854;2023-04-01T04:12:30;96696.34;;;7.51;100.00
65897;BME280;52677;50.898;10.854;2023-04-01T04:14:30;96691.66;;;7.48;100.00
65897;BME280;52677;50.898;10.854;2023-04-01T04:16:31;96695.59;;;7.47;100.00
65897;BME280;52677;50.898;10.854;2023-04-01T04:18:31;96695.22;;;7.45;100.00
65897;BME280;52677;50.898;10.854;2023-04-01T04:20:31;96690.50;;;7.45;100.00
65897;BME280;52677;50.898;10.854;2023-04-01T04:22:32;96699.53;;;7.42;100.00
65897;BME280;52677;50.898;10.854;2023-04-01T04:24:34;96694.81;;;7.43;100.00
65897;BME280;52677;50.898;10.854;2023-04-01T04:26:34;96699.56;;;7.39;100.00
65897;BME280;52677;50.898;10.854;2023-04-01T04:28:35;96698.34;;;7.43;100.00
65897;BME280;52677;50.898;10.854;2023-04-01T04:30:35;96702.31;;;7.39;100.00
65897;BME280;52677;50.898;10.854;2023-04-01T04:32:35;96702.28;;;7.46;100.00
65897;BME280;52677;50.898;10.854;2023-04-01T04:34:36;96706.56;;;7.54;100.00
65897;BME280;52677;50.898;10.854;2023-04-01T04:36:36;96708.13;;;7.55;100.00
65897;BME280;52677;50.898;10.854;2023-04-01T04:38:36;96710.91;;;7.51;100.00
65897;BME280;52677;50.898;10.854;2023-04-01T04:40:37;96709.34;;;7.47;100.00
65897;BME280;52677;50.898;10.854;2023-04-01T04:42:38;96714.06;;;7.50;100.00
65897;BME280;52677;50.898;10.854;2023-04-01T04:44:39;96706.97;;;7.52;100.00
65897;BME280;52677;50.898;10.854;2023-04-01T04:46:39;96713.25;;;7.53;100.00
65897;BME280;52677;50.898;10.854;2023-04-01T04:48:40;96714.84;;;7.54;100.00
65897;BME280;52677;50.898;10.854;2023-04-01T04:50:41;96717.19;;;7.52;100.00
65897;BME280;52677;50.898;10.854;2023-04-01T04:52:42;96721.50;;;7.53;100.00
65897;BME280;52677;50.898;10.854;2023-04-01T04:54:42;96718.75;;;7.53;100.00
65897;BME280;52677;50.898;10.854;2023-04-01T04:56:42;96722.25;;;7.60;100.00
65897;BME280;52677;50.898;10.854;2023-04-01T04:58:43;96724.22;;;7.60;100.00
65897;BME280;52677;50.898;10.854;2023-04-01T05:00:43;96719.16;;;7.55;100.00
65897;BME280;52677;50.898;10.854;2023-04-01T05:02:44;96720.31;;;7.57;100.00
65897;BME280;52677;50.898;10.854;2023-04-01T05:04:45;96718.34;;;7.58;100.00
65897;BME280;52677;50.898;10.854;2023-04-01T05:06:45;96714.84;;;7.54;100.00
65897;BME280;52677;50.898;10.854;2023-04-01T05:08:46;96719.56;;;7.53;100.00
65897;BME280;52677;50.898;10.854;2023-04-01T05:10:46;96716.00;;;7.53;100.00
65897;BME280;52677;50.898;10.854;2023-04-01T05:12:46;96721.13;;;7.51;100.00
65897;BME280;52677;50.898;10.854;2023-04-01T05:14:47;96725.06;;;7.50;100.00
65897;BME280;52677;50.898;10.854;2023-04-01T05:16:47;96716.00;;;7.53;100.00
65897;BME280;52677;50.898;10.854;2023-04-01T05:18:47;96726.59;;;7.62;100.00
65897;BME280;52677;50.898;10.854;2023-04-01T05:20:52;96718.75;;;7.56;100.00
65897;BME280;52677;50.898;10.854;2023-04-01T05:22:56;96710.50;;;7.56;100.00
65897;BME280;52677;50.898;10.854;2023-04-01T05:24:57;96719.94;;;7.55;100.00
65897;BME280;52677;50.898;10.854;2023-04-01T05:26:57;96719.16;;;7.51;100.00
65897;BME280;52677;50.898;10.854;2023-04-01T05:28:58;96724.28;;;7.49;100.00
65897;BME280;52677;50.898;10.854;2023-04-01T05:30:59;96716.81;;;7.53;100.00
65897;BME280;52677;50.898;10.854;2023-04-01T05:33:00;96727.00;;;7.56;100.00
65897;BME280;52677;50.898;10.854;2023-04-01T05:35:01;96726.63;;;7.51;100.00
65897;BME280;52677;50.898;10.854;2023-04-01T05:37:01;96730.16;;;7.55;100.00
65897;BME280;52677;50.898;10.854;2023-04-01T05:39:02;96722.69;;;7.52;100.00
65897;BME280;52677;50.898;10.854;2023-04-01T05:41:03;96730.94;;;7.55;100.00
65897;BME280;52677;50.898;10.854;2023-04-01T05:43:03;96734.06;;;7.57;100.00
65897;BME280;52677;50.898;10.854;2023-04-01T05:45:04;96736.44;;;7.55;100.00
65897;BME280;52677;50.898;10.854;2023-04-01T05:47:05;96729.69;;;7.71;100.00
65897;BME280;52677;50.898;10.854;2023-04-01T05:49:05;96730.84;;;7.73;100.00
65897;BME280;52677;50.898;10.854;2023-04-01T05:51:05;96724.16;;;7.74;100.00
65897;BME280;52677;50.898;10.854;2023-04-01T05:53:06;96735.16;;;7.74;100.00
65897;BME280;52677;50.898;10.854;2023-04-01T05:55:06;96736.72;;;7.79;100.00
65897;BME280;52677;50.898;10.854;2023-04-01T05:57:07;96736.72;;;7.79;100.00
65897;BME280;52677;50.898;10.854;2023-04-01T05:59:10;96734.72;;;7.83;100.00
65897;BME280;52677;50.898;10.854;2023-04-01T06:01:11;96740.22;;;7.86;100.00
65897;BME280;52677;50.898;10.854;2023-04-01T06:03:11;96740.97;;;7.91;100.00
65897;BME280;52677;50.898;10.854;2023-04-01T06:05:17;96740.13;;;8.01;100.00
65897;BME280;52677;50.898;10.854;2023-04-01T06:07:17;96738.50;;;8.07;100.00
65897;BME280;52677;50.898;10.854;2023-04-01T06:09:22;96742.41;;;8.09;100.00
65897;BME280;52677;50.898;10.854;2023-04-01T06:16:35;96740.78;;;8.23;100.00
65897;BME280;52677;50.898;10.854;2023-04-01T06:18:48;96746.59;;;8.35;100.00
65897;BME280;52677;50.898;10.854;2023-04-01T06:30:05;96751.13;;;8.60;100.00
65897;BME280;52677;50.898;10.854;2023-04-01T06:32:38;96747.56;;;8.63;100.00
65897;BME280;52677;50.898;10.854;2023-04-01T06:39:22;96750.34;;;8.63;100.00
65897;BME280;52677;50.898;10.854;2023-04-01T06:43:50;96752.63;;;8.71;100.00
65897;BME280;52677;50.898;10.854;2023-04-01T06:45:57;96753.00;;;8.73;100.00
65897;BME280;52677;50.898;10.854;2023-04-01T06:52:42;96752.22;;;8.73;100.00
65897;BME280;52677;50.898;10.854;2023-04-01T06:55:02;96749.41;;;8.77;100.00
65897;BME280;52677;50.898;10.854;2023-04-01T06:57:19;96754.84;;;8.84;100.00
65897;BME280;52677;50.898;10.854;2023-04-01T06:59:25;96745.03;;;8.83;100.00
65897;BME280;52677;50.898;10.854;2023-04-01T07:03:43;96747.81;;;8.79;100.00
65897;BME280;52677;50.898;10.854;2023-04-01T07:05:47;96748.25;;;8.74;100.00
65897;BME280;52677;50.898;10.854;2023-04-01T07:07:50;96749.03;;;8.75;100.00
65897;BME280;52677;50.898;10.854;2023-04-01T07:09:55;96762.03;;;8.74;100.00
65897;BME280;52677;50.898;10.854;2023-04-01T07:12:06;96752.22;;;8.73;100.00
65897;BME280;52677;50.898;10.854;2023-04-01T07:14:22;96760.53;;;8.69;100.00
65897;BME280;52677;50.898;10.854;2023-04-01T07:16:30;96755.06;;;8.62;100.00
65897;BME280;52677;50.898;10.854;2023-04-01T07:18:40;96751.13;;;8.60;100.00
65897;BME280;52677;50.898;10.854;2023-04-01T07:20:42;96764.53;;;8.61;100.00
65897;BME280;52677;50.898;10.854;2023-04-01T07:22:45;96762.97;;;8.57;100.00
65897;BME280;52677;50.898;10.854;2023-04-01T07:24:46;96755.91;;;8.52;100.00
65897;BME280;52677;50.898;10.854;2023-04-01T07:26:49;96752.78;;;8.54;100.00
65897;BME280;52677;50.898;10.854;2023-04-01T07:28:53;96749.63;;;8.52;100.00
65897;BME280;52677;50.898;10.854;2023-04-01T07:33:08;96757.47;;;8.57;100.00
65897;BME280;52677;50.898;10.854;2023-04-01T07:35:23;96752.31;;;8.59;100.00
65897;BME280;52677;50.898;10.854;2023-04-01T07:40:40;96762.09;;;8.67;100.00
65897;BME280;52677;50.898;10.854;2023-04-01T07:45:03;96766.75;;;8.77;100.00
65897;BME280;52677;50.898;10.854;2023-04-01T07:47:12;96761.94;;;8.85;100.00
65897;BME280;52677;50.898;10.854;2023-04-01T07:49:34;96767.81;;;8.90;100.00
65897;BME280;52677;50.898;10.854;2023-04-01T07:54:08;96770.88;;;8.99;100.00
65897;BME280;52677;50.898;10.854;2023-04-01T07:56:19;96763.78;;;8.98;100.00
65897;BME280;52677;50.898;10.854;2023-04-01T07:58:36;96767.75;;;8.97;100.00
65897;BME280;52677;50.898;10.854;2023-04-01T08:00:53;96769.28;;;9.02;100.00
65897;BME280;52677;50.898;10.854;2023-04-01T08:07:46;96776.31;;;9.07;100.00
65897;BME280;52677;50.898;10.854;2023-04-01T08:10:27;96784.19;;;9.08;100.00
65897;BME280;52677;50.898;10.854;2023-04-01T08:14:53;96779.84;;;9.07;100.00
65897;BME280;52677;50.898;10.854;2023-04-01T08:17:05;96783.81;;;9.06;100.00
65897;BME280;52677;50.898;10.854;2023-04-01T08:21:47;96791.66;;;9.11;100.00
65897;BME280;52677;50.898;10.854;2023-04-01T08:23:51;96788.84;;;9.15;100.00
65897;BME280;52677;50.898;10.854;2023-04-01T08:26:08;96794.31;;;9.18;100.00
65897;BME280;52677;50.898;10.854;2023-04-01T08:33:19;96794.19;;;9.33;100.00
65897;BME280;52677;50.898;10.854;2023-04-01T08:35:37;96802.44;;;9.36;100.00
65897;BME280;52677;50.898;10.854;2023-04-01T08:37:39;96794.91;;;9.40;100.00
65897;BME280;52677;50.898;10.854;2023-04-01T08:39:44;96789.44;;;9.37;100.00
65897;BME280;52677;50.898;10.854;2023-04-01T08:56:09;96794.94;;;9.37;100.00
65897;BME280;52677;50.898;10.854;2023-04-01T08:58:37;96790.69;;;9.28;100.00
65897;BME280;52677;50.898;10.854;2023-04-01T09:00:56;96799.69;;;9.36;100.00
65897;BME280;52677;50.898;10.854;2023-04-01T09:08:31;96798.06;;;9.39;100.00
65897;BME280;52677;50.898;10.854;2023-04-01T09:10:42;96806.31;;;9.42;100.00
65897;BME280;52677;50.898;10.854;2023-04-01T09:15:16;96802.69;;;9.49;100.00
65897;BME280;52677;50.898;10.854;2023-04-01T09:19:50;96800.28;;;9.54;100.00
65897;BME280;52677;50.898;10.854;2023-04-01T09:21:59;96795.47;;;9.58;100.00
65897;BME280;52677;50.898;10.854;2023-04-01T09:38:35;96807.13;;;10.38;100.00
65897;BME280;52677;50.898;10.854;2023-04-01T09:52:44;96818.44;;;10.47;100.00
65897;BME280;52677;50.898;10.854;2023-04-01T09:54:55;96821.66;;;10.42;99.38
65897;BME280;52677;50.898;10.854;2023-04-01T10:04:05;96824.22;;;10.29;100.00
65897;BME280;52677;50.898;10.854;2023-04-01T10:08:31;96827.84;;;10.23;100.00
65897;BME280;52677;50.898;10.854;2023-04-01T10:13:18;96819.56;;;10.23;100.00
65897;BME280;52677;50.898;10.854;2023-04-01T10:15:50;96828.91;;;10.32;100.00
65897;BME280;52677;50.898;10.854;2023-04-01T10:23:27;96824.84;;;10.40;99.95
65897;BME280;52677;50.898;10.854;2023-04-01T10:25:53;96812.38;;;10.29;100.00
65897;BME280;52677;50.898;10.854;2023-04-01T10:28:36;96812.75;;;10.31;99.70
65897;BME280;52677;50.898;10.854;2023-04-01T10:43:22;96815.06;;;10.36;100.00
65897;BME280;52677;50.898;10.854;2023-04-01T10:45:44;96823.28;;;10.39;100.00
65897;BME280;52677;50.898;10.854;2023-04-01T10:50:28;96805.88;;;10.43;100.00
65897;BME280;52677;50.898;10.854;2023-04-01T11:07:48;96817.69;;;10.70;100.00
65897;BME280;52677;50.898;10.854;2023-04-01T11:10:08;96819.25;;;10.71;99.77
65897;BME280;52677;50.898;10.854;2023-04-01T11:29:16;96823.19;;;10.47;99.37
65897;BME280;52677;50.898;10.854;2023-04-01T11:31:35;96814.47;;;10.48;100.00
65897;BME280;52677;50.898;10.854;2023-04-01T11:38:49;96826.47;;;10.65;100.00
65897;BME280;52677;50.898;10.854;2023-04-01T11:43:49;96816.84;;;10.73;98.73
65897;BME280;52677;50.898;10.854;2023-04-01T11:50:24;96828.59;;;11.04;95.68
65897;BME280;52677;50.898;10.854;2023-04-01T11:52:37;96826.94;;;11.10;97.04
65897;BME280;52677;50.898;10.854;2023-04-01T12:12:13;96840.69;;;11.14;98.85
65897;BME280;52677;50.898;10.854;2023-04-01T12:14:32;96834.81;;;11.12;97.92
65897;BME280;52677;50.898;10.854;2023-04-01T12:21:26;96840.03;;;11.06;97.31
65897;BME280;52677;50.898;10.854;2023-04-01T12:23:42;96848.22;;;11.13;99.50
65897;BME280;52677;50.898;10.854;2023-04-01T12:28:44;96848.78;;;11.28;96.08
65897;BME280;52677;50.898;10.854;2023-04-01T12:36:13;96852.06;;;11.43;95.92
65897;BME280;52677;50.898;10.854;2023-04-01T12:38:39;96853.56;;;11.47;97.03
65897;BME280;52677;50.898;10.854;2023-04-01T12:40:54;96848.81;;;11.48;95.95
65897;BME280;52677;50.898;10.854;2023-04-01T12:43:02;96853.22;;;11.45;95.75
65897;BME280;52677;50.898;10.854;2023-04-01T12:47:49;96851.22;;;11.46;94.93
65897;BME280;52677;50.898;10.854;2023-04-01T12:50:28;96861.16;;;11.43;94.52
65897;BME280;52677;50.898;10.854;2023-04-01T12:55:00;96862.84;;;11.37;94.43
65897;BME280;52677;50.898;10.854;2023-04-01T13:01:53;96867.28;;;11.31;95.58
65897;BME280;52677;50.898;10.854;2023-04-01T13:06:26;96868.19;;;11.24;95.36
65897;BME280;52677;50.898;10.854;2023-04-01T13:22:41;96882.16;;;10.94;99.46
65897;BME280;52677;50.898;10.854;2023-04-01T13:25:00;96885.28;;;10.96;99.38
65897;BME280;52677;50.898;10.854;2023-04-01T13:27:29;96880.44;;;11.00;99.44
65897;BME280;52677;50.898;10.854;2023-04-01T13:29:41;96878.88;;;10.99;99.00
65897;BME280;52677;50.898;10.854;2023-04-01T13:48:26;96891.94;;;11.25;96.39
65897;BME280;52677;50.898;10.854;2023-04-01T13:52:51;96888.09;;;11.16;96.07
65897;BME280;52677;50.898;10.854;2023-04-01T14:05:03;96883.97;;;11.04;98.79
65897;BME280;52677;50.898;10.854;2023-04-01T14:12:47;96899.00;;;11.03;99.27
65897;BME280;52677;50.898;10.854;2023-04-01T14:21:21;96901.69;;;11.07;99.75
65897;BME280;52677;50.898;10.854;2023-04-01T14:26:02;96908.97;;;10.97;99.61
65897;BME280;52677;50.898;10.854;2023-04-01T14:28:18;96911.03;;;10.93;100.00
65897;BME280;52677;50.898;10.854;2023-04-01T14:35:38;96911.59;;;10.81;100.00
65897;BME280;52677;50.898;10.854;2023-04-01T14:46:34;96916.66;;;10.86;100.00
65897;BME280;52677;50.898;10.854;2023-04-01T14:48:57;96916.28;;;10.84;100.00
65897;BME280;52677;50.898;10.854;2023-04-01T14:51:13;96908.03;;;10.80;100.00
65897;BME280;52677;50.898;10.854;2023-04-01T14:55:29;96920.66;;;10.81;100.00
65897;BME280;52677;50.898;10.854;2023-04-01T14:57:31;96926.97;;;10.82;100.00
65897;BME280;52677;50.898;10.854;2023-04-01T14:59:32;96921.88;;;10.80;100.00
65897;BME280;52677;50.898;10.854;2023-04-01T15:08:49;96930.31;;;10.69;100.00
65897;BME280;52677;50.898;10.854;2023-04-01T15:11:23;96946.06;;;10.73;100.00
65897;BME280;52677;50.898;10.854;2023-04-01T15:18:03;96940.28;;;10.63;100.00
65897;BME280;52677;50.898;10.854;2023-04-01T15:20:22;96943.50;;;10.58;100.00
65897;BME280;52677;50.898;10.854;2023-04-01T15:32:20;96958.03;;;10.35;100.00
65897;BME280;52677;50.898;10.854;2023-04-01T15:39:04;96966.41;;;10.28;100.00
65897;BME280;52677;50.898;10.854;2023-04-01T15:45:36;96968.91;;;10.12;100.00
65897;BME280;52677;50.898;10.854;2023-04-01T15:47:45;96973.28;;;10.09;100.00
65897;BME280;52677;50.898;10.854;2023-04-01T16:06:29;96993.56;;;9.92;100.00
65897;BME280;52677;50.898;10.854;2023-04-01T16:15:29;96999.56;;;9.83;100.00
65897;BME280;52677;50.898;10.854;2023-04-01T16:20:22;97008.75;;;9.77;100.00
65897;BME280;52677;50.898;10.854;2023-04-01T16:22:28;97005.19;;;9.76;100.00
65897;BME280;52677;50.898;10.854;2023-04-01T16:24:48;97004.00;;;9.74;100.00
65897;BME280;52677;50.898;10.854;2023-04-01T16:26:57;97009.16;;;9.72;100.00
65897;BME280;52677;50.898;10.854;2023-04-01T16:29:10;97006.81;;;9.70;100.00
65897;BME280;52677;50.898;10.854;2023-04-01T16:31:48;97011.16;;;9.71;100.00
65897;BME280;52677;50.898;10.854;2023-04-01T16:34:07;97006.41;;;9.72;100.00
65897;BME280;52677;50.898;10.854;2023-04-01T16:36:20;97013.06;;;9.74;100.00
65897;BME280;52677;50.898;10.854;2023-04-01T16:38:27;97013.06;;;9.74;100.00
65897;BME280;52677;50.898;10.854;2023-04-01T16:40:36;97016.25;;;9.76;100.00
65897;BME280;52677;50.898;10.854;2023-04-01T16:42:51;97016.63;;;9.75;100.00
65897;BME280;52677;50.898;10.854;2023-04-01T16:47:10;97018.19;;;9.76;100.00
65897;BME280;52677;50.898;10.854;2023-04-01T16:49:27;97026.47;;;9.76;100.00
65897;BME280;52677;50.898;10.854;2023-04-01T16:51:36;97022.56;;;9.73;100.00
65897;BME280;52677;50.898;10.854;2023-04-01T16:55:50;97034.75;;;9.76;100.00
65897;BME280;52677;50.898;10.854;2023-04-01T16:57:56;97036.00;;;9.71;100.00
65897;BME280;52677;50.898;10.854;2023-04-01T17:00:15;97036.81;;;9.68;100.00
65897;BME280;52677;50.898;10.854;2023-04-01T17:02:20;97037.22;;;9.67;100.00
65897;BME280;52677;50.898;10.854;2023-04-01T17:04:31;97042.34;;;9.65;100.00
65897;BME280;52677;50.898;10.854;2023-04-01T17:06:44;97047.47;;;9.66;100.00
65897;BME280;52677;50.898;10.854;2023-04-01T17:11:30;97045.94;;;9.62;100.00
65897;BME280;52677;50.898;10.854;2023-04-01T17:20:50;97053.09;;;9.55;100.00
65897;BME280;52677;50.898;10.854;2023-04-01T17:23:13;97057.44;;;9.53;100.00
65897;BME280;52677;50.898;10.854;2023-04-01T17:36:24;97096.59;;;9.34;100.00